Station Historical Data
Daily Summary for May 26, 2017 Units:  Both    English   Metric
« Previous Day
Next Day »
Daily Weekly Monthly Yearly Custom
  High: Low: Average:
Temperature: 62.2 °F /  16.8 °C 52.7 °F /  11.5 °C 55 °F /  12.8 °C
Dew Point: 58.5 °F /  14.7 °C 51.1 °F /  10.6 °C 53 °F /  11.7 °C
Humidity: 95% 85% 93%
Wind Speed: 13.0mph /  20.9km/h - 4.1mph /  6.6km/h
Wind Gust: 19.0mph /  30.6km/h - -
Wind- - WSW
Pressure: 29.89 in /  1012.1 hPa 29.52 in /  999.5 hPa -
Precipitation: 0.00 in /  0 mm    
Historical Graphs
 
 
Tabular Data for May 26, 2017
Time Temperature Dew Point Pressure Wind Wind Speed Wind Gust Humidity Rainfall Rate (Hourly)
00:00 55.4 °F /  13 °C 53.4 °F /  11.9 °C 29.52in /  999.5hPa SW 3.0mph /  4.8km/h 7.0mph /  11.3km/h 93% 0.00in /  0mm
00:05 55.3 °F /  12.9 °C 53.6 °F /  12 °C 29.52in /  999.5hPa SW 3.0mph /  4.8km/h 7.0mph /  11.3km/h 94% 0.00in /  0mm
00:10 55.2 °F /  12.9 °C 53.5 °F /  11.9 °C 29.53in /  999.9hPa SW 2.0mph /  3.2km/h 5.0mph /  8km/h 94% 0.00in /  0mm
00:15 55.0 °F /  12.8 °C 53.0 °F /  11.7 °C 29.53in /  999.9hPa SW 2.0mph /  3.2km/h 6.0mph /  9.7km/h 93% 0.00in /  0mm
00:20 54.8 °F /  12.7 °C 52.8 °F /  11.6 °C 29.54in /  1000.2hPa WSW 3.0mph /  4.8km/h 6.0mph /  9.7km/h 93% 0.00in /  0mm
00:25 54.6 °F /  12.6 °C 52.9 °F /  11.6 °C 29.54in /  1000.2hPa SW 3.0mph /  4.8km/h 7.0mph /  11.3km/h 94% 0.00in /  0mm
00:35 54.5 °F /  12.5 °C 52.8 °F /  11.6 °C 29.54in /  1000.2hPa WSW 2.0mph /  3.2km/h 6.0mph /  9.7km/h 94% 0.00in /  0mm
00:40 54.4 °F /  12.4 °C 52.7 °F /  11.5 °C 29.54in /  1000.2hPa SW 4.0mph /  6.4km/h 8.0mph /  12.9km/h 94% 0.00in /  0mm
00:45 54.4 °F /  12.4 °C 52.7 °F /  11.5 °C 29.54in /  1000.2hPa WSW 4.0mph /  6.4km/h 7.0mph /  11.3km/h 94% 0.00in /  0mm
00:50 54.2 °F /  12.3 °C 52.5 °F /  11.4 °C 29.54in /  1000.2hPa WSW 2.0mph /  3.2km/h 8.0mph /  12.9km/h 94% 0.00in /  0mm
00:55 54.3 °F /  12.4 °C 52.6 °F /  11.4 °C 29.54in /  1000.2hPa WSW 2.0mph /  3.2km/h 7.0mph /  11.3km/h 94% 0.00in /  0mm
01:00 54.3 °F /  12.4 °C 52.6 °F /  11.4 °C 29.54in /  1000.2hPa WSW 3.0mph /  4.8km/h 7.0mph /  11.3km/h 94% 0.00in /  0mm
01:05 54.2 °F /  12.3 °C 52.5 °F /  11.4 °C 29.54in /  1000.2hPa SW 3.0mph /  4.8km/h 7.0mph /  11.3km/h 94% 0.00in /  0mm
01:10 54.2 °F /  12.3 °C 52.5 °F /  11.4 °C 29.54in /  1000.2hPa SW 4.0mph /  6.4km/h 7.0mph /  11.3km/h 94% 0.00in /  0mm
01:15 54.2 °F /  12.3 °C 52.5 °F /  11.4 °C 29.54in /  1000.2hPa WSW 4.0mph /  6.4km/h 7.0mph /  11.3km/h 94% 0.00in /  0mm
01:20 54.3 °F /  12.4 °C 52.6 °F /  11.4 °C 29.55in /  1000.6hPa WSW 3.0mph /  4.8km/h 7.0mph /  11.3km/h 94% 0.00in /  0mm
01:25 54.4 °F /  12.4 °C 52.7 °F /  11.5 °C 29.55in /  1000.6hPa WSW 3.0mph /  4.8km/h 7.0mph /  11.3km/h 94% 0.00in /  0mm
01:30 54.4 °F /  12.4 °C 52.7 °F /  11.5 °C 29.55in /  1000.6hPa WSW 3.0mph /  4.8km/h 7.0mph /  11.3km/h 94% 0.00in /  0mm
01:35 54.5 °F /  12.5 °C 53.1 °F /  11.7 °C 29.55in /  1000.6hPa WSW 2.0mph /  3.2km/h 6.0mph /  9.7km/h 95% 0.00in /  0mm
01:40 54.6 °F /  12.6 °C 53.2 °F /  11.8 °C 29.55in /  1000.6hPa WSW 5.0mph /  8km/h 8.0mph /  12.9km/h 95% 0.00in /  0mm
01:45 54.6 °F /  12.6 °C 52.9 °F /  11.6 °C 29.55in /  1000.6hPa SW 2.0mph /  3.2km/h 8.0mph /  12.9km/h 94% 0.00in /  0mm
01:50 54.6 °F /  12.6 °C 52.9 °F /  11.6 °C 29.55in /  1000.6hPa West 3.0mph /  4.8km/h 6.0mph /  9.7km/h 94% 0.00in /  0mm
01:55 54.4 °F /  12.4 °C 52.7 °F /  11.5 °C 29.55in /  1000.6hPa SW 7.0mph /  11.3km/h 8.0mph /  12.9km/h 94% 0.00in /  0mm
02:00 54.3 °F /  12.4 °C 52.6 °F /  11.4 °C 29.55in /  1000.6hPa SW 4.0mph /  6.4km/h 7.0mph /  11.3km/h 94% 0.00in /  0mm
02:05 54.3 °F /  12.4 °C 52.9 °F /  11.6 °C 29.55in /  1000.6hPa WSW 4.0mph /  6.4km/h 7.0mph /  11.3km/h 95% 0.00in /  0mm
02:10 54.4 °F /  12.4 °C 53.0 °F /  11.7 °C 29.55in /  1000.6hPa WSW 4.0mph /  6.4km/h 9.0mph /  14.5km/h 95% 0.00in /  0mm
02:15 54.5 °F /  12.5 °C 53.1 °F /  11.7 °C 29.55in /  1000.6hPa WSW 4.0mph /  6.4km/h 9.0mph /  14.5km/h 95% 0.00in /  0mm
02:20 54.6 °F /  12.6 °C 53.2 °F /  11.8 °C 29.55in /  1000.6hPa SSW 3.0mph /  4.8km/h 6.0mph /  9.7km/h 95% 0.00in /  0mm
02:25 54.4 °F /  12.4 °C 53.0 °F /  11.7 °C 29.55in /  1000.6hPa WSW 4.0mph /  6.4km/h 6.0mph /  9.7km/h 95% 0.00in /  0mm
02:30 54.2 °F /  12.3 °C 52.8 °F /  11.6 °C 29.55in /  1000.6hPa WSW 3.0mph /  4.8km/h 7.0mph /  11.3km/h 95% 0.00in /  0mm
02:35 54.1 °F /  12.3 °C 52.7 °F /  11.5 °C 29.55in /  1000.6hPa West 2.0mph /  3.2km/h 6.0mph /  9.7km/h 95% 0.00in /  0mm
02:40 54.1 °F /  12.3 °C 52.7 °F /  11.5 °C 29.55in /  1000.6hPa SW 3.0mph /  4.8km/h 8.0mph /  12.9km/h 95% 0.00in /  0mm
02:45 53.9 °F /  12.2 °C 52.2 °F /  11.2 °C 29.55in /  1000.6hPa WSW 5.0mph /  8km/h 6.0mph /  9.7km/h 94% 0.00in /  0mm
02:50 53.6 °F /  12 °C 51.9 °F /  11.1 °C 29.56in /  1000.9hPa SSW 4.0mph /  6.4km/h 10.0mph /  16.1km/h 94% 0.00in /  0mm
02:55 53.3 °F /  11.8 °C 51.9 °F /  11.1 °C 29.56in /  1000.9hPa SW 4.0mph /  6.4km/h 10.0mph /  16.1km/h 95% 0.00in /  0mm
03:00 53.2 °F /  11.8 °C 51.5 °F /  10.8 °C 29.56in /  1000.9hPa SW 5.0mph /  8km/h 10.0mph /  16.1km/h 94% 0.00in /  0mm
03:05 53.1 °F /  11.7 °C 51.7 °F /  10.9 °C 29.56in /  1000.9hPa SW 5.0mph /  8km/h 9.0mph /  14.5km/h 95% 0.00in /  0mm
03:10 53.1 °F /  11.7 °C 51.7 °F /  10.9 °C 29.56in /  1000.9hPa SW 4.0mph /  6.4km/h 9.0mph /  14.5km/h 95% 0.00in /  0mm
03:15 52.9 °F /  11.6 °C 51.5 °F /  10.8 °C 29.57in /  1001.2hPa SW 4.0mph /  6.4km/h 10.0mph /  16.1km/h 95% 0.00in /  0mm
03:20 52.8 °F /  11.6 °C 51.1 °F /  10.6 °C 29.57in /  1001.2hPa SW 4.0mph /  6.4km/h 8.0mph /  12.9km/h 94% 0.00in /  0mm
03:25 52.7 °F /  11.5 °C 51.3 °F /  10.7 °C 29.57in /  1001.2hPa SSW 3.0mph /  4.8km/h 9.0mph /  14.5km/h 95% 0.00in /  0mm
03:30 52.8 °F /  11.6 °C 51.4 °F /  10.8 °C 29.57in /  1001.2hPa SW 4.0mph /  6.4km/h 9.0mph /  14.5km/h 95% 0.00in /  0mm
03:35 52.8 °F /  11.6 °C 51.4 °F /  10.8 °C 29.57in /  1001.2hPa SW 3.0mph /  4.8km/h 6.0mph /  9.7km/h 95% 0.00in /  0mm
03:40 52.8 °F /  11.6 °C 51.4 °F /  10.8 °C 29.58in /  1001.6hPa SW 3.0mph /  4.8km/h 6.0mph /  9.7km/h 95% 0.00in /  0mm
03:45 52.8 °F /  11.6 °C 51.4 °F /  10.8 °C 29.58in /  1001.6hPa SW 3.0mph /  4.8km/h 6.0mph /  9.7km/h 95% 0.00in /  0mm
03:50 52.9 °F /  11.6 °C 51.5 °F /  10.8 °C 29.58in /  1001.6hPa SW 4.0mph /  6.4km/h 6.0mph /  9.7km/h 95% 0.00in /  0mm
03:55 52.9 °F /  11.6 °C 51.5 °F /  10.8 °C 29.58in /  1001.6hPa WSW 2.0mph /  3.2km/h 5.0mph /  8km/h 95% 0.00in /  0mm
04:00 53.0 °F /  11.7 °C 51.6 °F /  10.9 °C 29.58in /  1001.6hPa SW 3.0mph /  4.8km/h 5.0mph /  8km/h 95% 0.00in /  0mm
04:05 52.9 °F /  11.6 °C 51.5 °F /  10.8 °C 29.58in /  1001.6hPa South 2.0mph /  3.2km/h 5.0mph /  8km/h 95% 0.00in /  0mm
04:10 52.9 °F /  11.6 °C 51.5 °F /  10.8 °C 29.58in /  1001.6hPa SW 2.0mph /  3.2km/h 6.0mph /  9.7km/h 95% 0.00in /  0mm
04:15 53.0 °F /  11.7 °C 51.6 °F /  10.9 °C 29.58in /  1001.6hPa WSW 3.0mph /  4.8km/h 4.0mph /  6.4km/h 95% 0.00in /  0mm
04:20 53.0 °F /  11.7 °C 51.6 °F /  10.9 °C 29.58in /  1001.6hPa WSW 1.0mph /  1.6km/h 5.0mph /  8km/h 95% 0.00in /  0mm
04:25 53.1 °F /  11.7 °C 51.7 °F /  10.9 °C 29.58in /  1001.6hPa West 2.0mph /  3.2km/h 5.0mph /  8km/h 95% 0.00in /  0mm
04:30 53.1 °F /  11.7 °C 51.7 °F /  10.9 °C 29.58in /  1001.6hPa WSW 2.0mph /  3.2km/h 5.0mph /  8km/h 95% 0.00in /  0mm
04:35 53.3 °F /  11.8 °C 51.9 °F /  11.1 °C 29.58in /  1001.6hPa WSW 2.0mph /  3.2km/h 6.0mph /  9.7km/h 95% 0.00in /  0mm
04:40 53.2 °F /  11.8 °C 51.8 °F /  11 °C 29.58in /  1001.6hPa WSW 3.0mph /  4.8km/h 6.0mph /  9.7km/h 95% 0.00in /  0mm
04:45 53.3 °F /  11.8 °C 51.9 °F /  11.1 °C 29.59in /  1001.9hPa SW 2.0mph /  3.2km/h 5.0mph /  8km/h 95% 0.00in /  0mm
04:50 53.3 °F /  11.8 °C 51.9 °F /  11.1 °C 29.59in /  1001.9hPa WSW 2.0mph /  3.2km/h 5.0mph /  8km/h 95% 0.00in /  0mm
04:55 53.3 °F /  11.8 °C 51.9 °F /  11.1 °C 29.59in /  1001.9hPa SW 4.0mph /  6.4km/h 6.0mph /  9.7km/h 95% 0.00in /  0mm
05:00 53.3 °F /  11.8 °C 51.9 °F /  11.1 °C 29.59in /  1001.9hPa SW 3.0mph /  4.8km/h 6.0mph /  9.7km/h 95% 0.00in /  0mm
05:04 53.4 °F /  11.9 °C 52.0 °F /  11.1 °C 29.59in /  1001.9hPa SW 3.0mph /  4.8km/h 4.0mph /  6.4km/h 95% 0.00in /  0mm
05:10 53.4 °F /  11.9 °C 52.0 °F /  11.1 °C 29.59in /  1001.9hPa Calm   4.0mph /  6.4km/h 95% 0.00in /  0mm
05:15 53.4 °F /  11.9 °C 52.0 °F /  11.1 °C 29.59in /  1001.9hPa WSW 2.0mph /  3.2km/h 4.0mph /  6.4km/h 95% 0.00in /  0mm
05:20 53.4 °F /  11.9 °C 52.0 °F /  11.1 °C 29.59in /  1001.9hPa WSW 3.0mph /  4.8km/h 4.0mph /  6.4km/h 95% 0.00in /  0mm
05:24 53.2 °F /  11.8 °C 51.8 °F /  11 °C 29.59in /  1001.9hPa WSW 3.0mph /  4.8km/h 4.0mph /  6.4km/h 95% 0.00in /  0mm
05:30 53.2 °F /  11.8 °C 51.8 °F /  11 °C 29.59in /  1001.9hPa WSW 3.0mph /  4.8km/h 6.0mph /  9.7km/h 95% 0.00in /  0mm
05:35 53.1 °F /  11.7 °C 51.7 °F /  10.9 °C 29.59in /  1001.9hPa WSW 1.0mph /  1.6km/h 6.0mph /  9.7km/h 95% 0.00in /  0mm
05:40 53.2 °F /  11.8 °C 51.8 °F /  11 °C 29.59in /  1001.9hPa SW 4.0mph /  6.4km/h 7.0mph /  11.3km/h 95% 0.00in /  0mm
05:45 53.1 °F /  11.7 °C 51.7 °F /  10.9 °C 29.59in /  1001.9hPa WSW 2.0mph /  3.2km/h 8.0mph /  12.9km/h 95% 0.00in /  0mm
05:50 53.0 °F /  11.7 °C 51.6 °F /  10.9 °C 29.59in /  1001.9hPa SW 4.0mph /  6.4km/h 7.0mph /  11.3km/h 95% 0.00in /  0mm
05:55 53.1 °F /  11.7 °C 51.7 °F /  10.9 °C 29.60in /  1002.3hPa WSW 3.0mph /  4.8km/h 7.0mph /  11.3km/h 95% 0.00in /  0mm
06:00 53.1 °F /  11.7 °C 51.7 °F /  10.9 °C 29.60in /  1002.3hPa SW 3.0mph /  4.8km/h 8.0mph /  12.9km/h 95% 0.00in /  0mm
06:05 53.2 °F /  11.8 °C 51.8 °F /  11 °C 29.60in /  1002.3hPa SW 3.0mph /  4.8km/h 8.0mph /  12.9km/h 95% 0.00in /  0mm
06:10 53.1 °F /  11.7 °C 51.7 °F /  10.9 °C 29.61in /  1002.6hPa SW 4.0mph /  6.4km/h 7.0mph /  11.3km/h 95% 0.00in /  0mm
06:15 53.1 °F /  11.7 °C 51.7 °F /  10.9 °C 29.61in /  1002.6hPa SW 4.0mph /  6.4km/h 8.0mph /  12.9km/h 95% 0.00in /  0mm
06:19 53.1 °F /  11.7 °C 51.7 °F /  10.9 °C 29.61in /  1002.6hPa SW 5.0mph /  8km/h 8.0mph /  12.9km/h 95% 0.00in /  0mm
06:24 53.1 °F /  11.7 °C 51.7 °F /  10.9 °C 29.61in /  1002.6hPa SW 4.0mph /  6.4km/h 8.0mph /  12.9km/h 95% 0.00in /  0mm
06:30 53.2 °F /  11.8 °C 51.8 °F /  11 °C 29.61in /  1002.6hPa SW 6.0mph /  9.7km/h 7.0mph /  11.3km/h 95% 0.00in /  0mm
06:35 53.2 °F /  11.8 °C 51.8 °F /  11 °C 29.61in /  1002.6hPa SW 2.0mph /  3.2km/h 7.0mph /  11.3km/h 95% 0.00in /  0mm
06:40 53.2 °F /  11.8 °C 51.8 °F /  11 °C 29.61in /  1002.6hPa SW 3.0mph /  4.8km/h 10.0mph /  16.1km/h 95% 0.00in /  0mm
06:45 53.3 °F /  11.8 °C 51.9 °F /  11.1 °C 29.61in /  1002.6hPa SW 1.0mph /  1.6km/h 6.0mph /  9.7km/h 95% 0.00in /  0mm
06:50 53.3 °F /  11.8 °C 51.9 °F /  11.1 °C 29.62in /  1002.9hPa South 1.0mph /  1.6km/h 8.0mph /  12.9km/h 95% 0.00in /  0mm
06:55 53.3 °F /  11.8 °C 51.9 °F /  11.1 °C 29.62in /  1002.9hPa SW 3.0mph /  4.8km/h 8.0mph /  12.9km/h 95% 0.00in /  0mm
07:00 53.3 °F /  11.8 °C 51.9 °F /  11.1 °C 29.62in /  1002.9hPa SW 3.0mph /  4.8km/h 7.0mph /  11.3km/h 95% 0.00in /  0mm
07:05 53.4 °F /  11.9 °C 52.0 °F /  11.1 °C 29.62in /  1002.9hPa WSW 3.0mph /  4.8km/h 7.0mph /  11.3km/h 95% 0.00in /  0mm
07:10 53.7 °F /  12.1 °C 52.3 °F /  11.3 °C 29.63in /  1003.3hPa WSW 2.0mph /  3.2km/h 5.0mph /  8km/h 95% 0.00in /  0mm
07:15 53.8 °F /  12.1 °C 52.4 °F /  11.3 °C 29.63in /  1003.3hPa WSW 2.0mph /  3.2km/h 7.0mph /  11.3km/h 95% 0.00in /  0mm
07:19 53.7 °F /  12.1 °C 52.0 °F /  11.1 °C 29.64in /  1003.6hPa SW 3.0mph /  4.8km/h 7.0mph /  11.3km/h 94% 0.00in /  0mm
07:24 53.6 °F /  12 °C 51.9 °F /  11.1 °C 29.64in /  1003.6hPa WSW 4.0mph /  6.4km/h 7.0mph /  11.3km/h 94% 0.00in /  0mm
07:29 53.7 °F /  12.1 °C 52.0 °F /  11.1 °C 29.64in /  1003.6hPa WNW 4.0mph /  6.4km/h 8.0mph /  12.9km/h 94% 0.00in /  0mm
07:35 53.4 °F /  11.9 °C 51.7 °F /  10.9 °C 29.65in /  1003.9hPa WNW 6.0mph /  9.7km/h 14.0mph /  22.5km/h 94% 0.00in /  0mm
07:40 53.2 °F /  11.8 °C 51.5 °F /  10.8 °C 29.65in /  1003.9hPa West 6.0mph /  9.7km/h 8.0mph /  12.9km/h 94% 0.00in /  0mm
07:45 53.0 °F /  11.7 °C 51.3 °F /  10.7 °C 29.65in /  1003.9hPa SSW 5.0mph /  8km/h 10.0mph /  16.1km/h 94% 0.00in /  0mm
07:50 52.9 °F /  11.6 °C 51.2 °F /  10.7 °C 29.66in /  1004.3hPa WSW 8.0mph /  12.9km/h 9.0mph /  14.5km/h 94% 0.00in /  0mm
07:54 52.8 °F /  11.6 °C 51.1 °F /  10.6 °C 29.66in /  1004.3hPa WSW 4.0mph /  6.4km/h 11.0mph /  17.7km/h 94% 0.00in /  0mm
08:00 52.8 °F /  11.6 °C 51.1 °F /  10.6 °C 29.66in /  1004.3hPa WSW 4.0mph /  6.4km/h 11.0mph /  17.7km/h 94% 0.00in /  0mm
08:05 52.8 °F /  11.6 °C 51.1 °F /  10.6 °C 29.66in /  1004.3hPa WSW 4.0mph /  6.4km/h 10.0mph /  16.1km/h 94% 0.00in /  0mm
08:10 52.9 °F /  11.6 °C 51.2 °F /  10.7 °C 29.66in /  1004.3hPa WSW 4.0mph /  6.4km/h 10.0mph /  16.1km/h 94% 0.00in /  0mm
08:15 52.9 °F /  11.6 °C 51.2 °F /  10.7 °C 29.67in /  1004.6hPa WSW 4.0mph /  6.4km/h 9.0mph /  14.5km/h 94% 0.00in /  0mm
08:20 53.0 °F /  11.7 °C 51.3 °F /  10.7 °C 29.67in /  1004.6hPa WSW 3.0mph /  4.8km/h 9.0mph /  14.5km/h 94% 0.00in /  0mm
08:24 53.1 °F /  11.7 °C 51.4 °F /  10.8 °C 29.67in /  1004.6hPa WSW 3.0mph /  4.8km/h 7.0mph /  11.3km/h 94% 0.00in /  0mm
08:29 53.2 °F /  11.8 °C 51.5 °F /  10.8 °C 29.67in /  1004.6hPa WSW 1.0mph /  1.6km/h 5.0mph /  8km/h 94% 0.00in /  0mm
08:35 53.3 °F /  11.8 °C 51.9 °F /  11.1 °C 29.67in /  1004.6hPa SW 4.0mph /  6.4km/h 7.0mph /  11.3km/h 95% 0.00in /  0mm
08:40 53.4 °F /  11.9 °C 52.0 °F /  11.1 °C 29.67in /  1004.6hPa SW 5.0mph /  8km/h 5.0mph /  8km/h 95% 0.00in /  0mm
08:44 53.7 °F /  12.1 °C 52.3 °F /  11.3 °C 29.67in /  1004.6hPa SW 3.0mph /  4.8km/h 5.0mph /  8km/h 95% 0.00in /  0mm
08:49 53.7 °F /  12.1 °C 52.0 °F /  11.1 °C 29.67in /  1004.6hPa WSW 6.0mph /  9.7km/h 7.0mph /  11.3km/h 94% 0.00in /  0mm
08:55 53.8 °F /  12.1 °C 52.1 °F /  11.2 °C 29.67in /  1004.6hPa SW 3.0mph /  4.8km/h 7.0mph /  11.3km/h 94% 0.00in /  0mm
08:59 53.8 °F /  12.1 °C 52.1 °F /  11.2 °C 29.68in /  1005hPa SW 4.0mph /  6.4km/h 7.0mph /  11.3km/h 94% 0.00in /  0mm
09:05 53.9 °F /  12.2 °C 52.2 °F /  11.2 °C 29.68in /  1005hPa SW 3.0mph /  4.8km/h 7.0mph /  11.3km/h 94% 0.00in /  0mm
09:10 53.9 °F /  12.2 °C 52.2 °F /  11.2 °C 29.68in /  1005hPa SW 4.0mph /  6.4km/h 9.0mph /  14.5km/h 94% 0.00in /  0mm
09:15 53.8 °F /  12.1 °C 52.1 °F /  11.2 °C 29.68in /  1005hPa WSW 4.0mph /  6.4km/h 8.0mph /  12.9km/h 94% 0.00in /  0mm
09:20 53.8 °F /  12.1 °C 52.1 °F /  11.2 °C 29.68in /  1005hPa WSW 4.0mph /  6.4km/h 8.0mph /  12.9km/h 94% 0.00in /  0mm
09:24 54.1 °F /  12.3 °C 52.7 °F /  11.5 °C 29.68in /  1005hPa WSW 2.0mph /  3.2km/h 6.0mph /  9.7km/h 95% 0.00in /  0mm
09:30 54.4 °F /  12.4 °C 53.0 °F /  11.7 °C 29.68in /  1005hPa WSW 3.0mph /  4.8km/h 5.0mph /  8km/h 95% 0.00in /  0mm
09:35 54.6 °F /  12.6 °C 53.2 °F /  11.8 °C 29.68in /  1005hPa SW 2.0mph /  3.2km/h 6.0mph /  9.7km/h 95% 0.00in /  0mm
09:39 55.1 °F /  12.8 °C 53.7 °F /  12.1 °C 29.69in /  1005.3hPa West 4.0mph /  6.4km/h 4.0mph /  6.4km/h 95% 0.01in /  0.25mm
09:44 55.5 °F /  13.1 °C 54.1 °F /  12.3 °C 29.69in /  1005.3hPa WSW 3.0mph /  4.8km/h 5.0mph /  8km/h 95% 0.01in /  0.25mm
09:49 55.6 °F /  13.1 °C 54.2 °F /  12.3 °C 29.69in /  1005.3hPa West 3.0mph /  4.8km/h 5.0mph /  8km/h 95% 0.01in /  0.25mm
09:54 55.9 °F /  13.3 °C 54.2 °F /  12.3 °C 29.69in /  1005.3hPa WNW 3.0mph /  4.8km/h 6.0mph /  9.7km/h 94% 0.01in /  0.25mm
09:59 56.1 °F /  13.4 °C 54.7 °F /  12.6 °C 29.69in /  1005.3hPa West 3.0mph /  4.8km/h 8.0mph /  12.9km/h 95% 0.01in /  0.25mm
10:05 56.4 °F /  13.6 °C 54.7 °F /  12.6 °C 29.69in /  1005.3hPa WNW 2.0mph /  3.2km/h 8.0mph /  12.9km/h 94% 0.02in /  0.51mm
10:10 56.5 °F /  13.6 °C 54.8 °F /  12.7 °C 29.70in /  1005.6hPa WNW 3.0mph /  4.8km/h 6.0mph /  9.7km/h 94% 0.02in /  0.51mm
10:15 56.9 °F /  13.8 °C 55.2 °F /  12.9 °C 29.70in /  1005.6hPa WNW 6.0mph /  9.7km/h 7.0mph /  11.3km/h 94% 0.02in /  0.51mm
10:19 56.8 °F /  13.8 °C 55.1 °F /  12.8 °C 29.70in /  1005.6hPa WNW 3.0mph /  4.8km/h 7.0mph /  11.3km/h 94% 0.02in /  0.51mm
10:25 56.9 °F /  13.8 °C 54.9 °F /  12.7 °C 29.70in /  1005.6hPa WNW 4.0mph /  6.4km/h 7.0mph /  11.3km/h 93% 0.02in /  0.51mm
10:30 56.8 °F /  13.8 °C 54.8 °F /  12.7 °C 29.71in /  1006hPa WNW 3.0mph /  4.8km/h 7.0mph /  11.3km/h 93% 0.02in /  0.51mm
10:34 57.0 °F /  13.9 °C 55.3 °F /  12.9 °C 29.71in /  1006hPa WNW 2.0mph /  3.2km/h 5.0mph /  8km/h 94% 0.02in /  0.51mm
10:39 56.5 °F /  13.6 °C 54.5 °F /  12.5 °C 29.71in /  1006hPa WNW 5.0mph /  8km/h 6.0mph /  9.7km/h 93% 0.01in /  0.25mm
10:44 56.5 °F /  13.6 °C 54.5 °F /  12.5 °C 29.71in /  1006hPa West 2.0mph /  3.2km/h 6.0mph /  9.7km/h 93% 0.01in /  0.25mm
10:49 56.6 °F /  13.7 °C 54.6 °F /  12.6 °C 29.71in /  1006hPa West 3.0mph /  4.8km/h 6.0mph /  9.7km/h 93% 0.01in /  0.25mm
10:55 56.9 °F /  13.8 °C 55.2 °F /  12.9 °C 29.71in /  1006hPa West 3.0mph /  4.8km/h 6.0mph /  9.7km/h 94% 0.02in /  0.51mm
11:00 57.1 °F /  13.9 °C 55.4 °F /  13 °C 29.71in /  1006hPa WSW 3.0mph /  4.8km/h 7.0mph /  11.3km/h 94% 0.02in /  0.51mm
11:04 57.1 °F /  13.9 °C 55.4 °F /  13 °C 29.71in /  1006hPa WSW 4.0mph /  6.4km/h 6.0mph /  9.7km/h 94% 0.01in /  0.25mm
11:10 57.6 °F /  14.2 °C 55.9 °F /  13.3 °C 29.71in /  1006hPa West 5.0mph /  8km/h 6.0mph /  9.7km/h 94% 0.02in /  0.51mm
11:15 57.8 °F /  14.3 °C 55.8 °F /  13.2 °C 29.71in /  1006hPa WSW 2.0mph /  3.2km/h 8.0mph /  12.9km/h 93% 0.02in /  0.51mm
11:19 58.6 °F /  14.8 °C 56.9 °F /  13.8 °C 29.71in /  1006hPa West 3.0mph /  4.8km/h 8.0mph /  12.9km/h 94% 0.02in /  0.51mm
11:24 58.6 °F /  14.8 °C 56.3 °F /  13.5 °C 29.71in /  1006hPa West 2.0mph /  3.2km/h 5.0mph /  8km/h 92% 0.02in /  0.51mm
11:29 58.6 °F /  14.8 °C 56.6 °F /  13.7 °C 29.71in /  1006hPa West 3.0mph /  4.8km/h 6.0mph /  9.7km/h 93% 0.02in /  0.51mm
11:35 58.8 °F /  14.9 °C 56.5 °F /  13.6 °C 29.72in /  1006.3hPa West 3.0mph /  4.8km/h 8.0mph /  12.9km/h 92% 0.02in /  0.51mm
11:39 58.9 °F /  14.9 °C 56.6 °F /  13.7 °C 29.72in /  1006.3hPa West 3.0mph /  4.8km/h 6.0mph /  9.7km/h 92% 0.02in /  0.51mm
11:44 59.0 °F /  15 °C 56.4 °F /  13.6 °C 29.71in /  1006hPa WSW 3.0mph /  4.8km/h 6.0mph /  9.7km/h 91% 0.02in /  0.51mm
11:50 58.3 °F /  14.6 °C 55.7 °F /  13.2 °C 29.71in /  1006hPa West 5.0mph /  8km/h 10.0mph /  16.1km/h 91% 0.02in /  0.51mm
11:54 58.0 °F /  14.4 °C 55.7 °F /  13.2 °C 29.72in /  1006.3hPa SW 5.0mph /  8km/h 8.0mph /  12.9km/h 92% 0.01in /  0.25mm
11:59 57.9 °F /  14.4 °C 55.6 °F /  13.1 °C 29.72in /  1006.3hPa WSW 3.0mph /  4.8km/h 9.0mph /  14.5km/h 92% 0.01in /  0.25mm
12:04 57.9 °F /  14.4 °C 55.6 °F /  13.1 °C 29.72in /  1006.3hPa WSW 5.0mph /  8km/h 8.0mph /  12.9km/h 92% 0.01in /  0.25mm
12:09 57.8 °F /  14.3 °C 55.5 °F /  13.1 °C 29.72in /  1006.3hPa SW 3.0mph /  4.8km/h 9.0mph /  14.5km/h 92% 0.00in /  0mm
12:15 58.3 °F /  14.6 °C 56.3 °F /  13.5 °C 29.72in /  1006.3hPa SW 2.0mph /  3.2km/h 8.0mph /  12.9km/h 93% 0.00in /  0mm
12:19 58.5 °F /  14.7 °C 56.2 °F /  13.4 °C 29.72in /  1006.3hPa SW 4.0mph /  6.4km/h 10.0mph /  16.1km/h 92% 0.00in /  0mm
12:24 59.1 °F /  15.1 °C 56.8 °F /  13.8 °C 29.72in /  1006.3hPa SW 5.0mph /  8km/h 10.0mph /  16.1km/h 92% 0.00in /  0mm
12:29 59.9 °F /  15.5 °C 57.6 °F /  14.2 °C 29.72in /  1006.3hPa SW 4.0mph /  6.4km/h 7.0mph /  11.3km/h 92% 0.00in /  0mm
12:35 60.3 °F /  15.7 °C 57.4 °F /  14.1 °C 29.72in /  1006.3hPa SW 4.0mph /  6.4km/h 9.0mph /  14.5km/h 90% 0.00in /  0mm
12:40 59.6 °F /  15.3 °C 56.4 °F /  13.6 °C 29.72in /  1006.3hPa SW 2.0mph /  3.2km/h 9.0mph /  14.5km/h 89% 0.00in /  0mm
12:45 59.3 °F /  15.2 °C 56.1 °F /  13.4 °C 29.72in /  1006.3hPa WSW 3.0mph /  4.8km/h 11.0mph /  17.7km/h 89% 0.00in /  0mm
12:49 58.9 °F /  14.9 °C 56.0 °F /  13.3 °C 29.73in /  1006.7hPa SW 5.0mph /  8km/h 11.0mph /  17.7km/h 90% 0.00in /  0mm
12:54 59.0 °F /  15 °C 56.1 °F /  13.4 °C 29.73in /  1006.7hPa SW 6.0mph /  9.7km/h 8.0mph /  12.9km/h 90% 0.00in /  0mm
12:59 60.1 °F /  15.6 °C 57.2 °F /  14 °C 29.73in /  1006.7hPa SW 4.0mph /  6.4km/h 8.0mph /  12.9km/h 90% 0.00in /  0mm
13:04 61.8 °F /  16.6 °C 58.5 °F /  14.7 °C 29.73in /  1006.7hPa SW 6.0mph /  9.7km/h 9.0mph /  14.5km/h 89% 0.00in /  0mm
13:09 62.2 °F /  16.8 °C 58.3 °F /  14.6 °C 29.73in /  1006.7hPa WSW 7.0mph /  11.3km/h 9.0mph /  14.5km/h 87% 0.00in /  0mm
13:15 61.1 °F /  16.2 °C 56.9 °F /  13.8 °C 29.74in /  1007hPa SW 6.0mph /  9.7km/h 12.0mph /  19.3km/h 86% 0.00in /  0mm
13:19 60.6 °F /  15.9 °C 56.4 °F /  13.6 °C 29.74in /  1007hPa WSW 6.0mph /  9.7km/h 12.0mph /  19.3km/h 86% 0.00in /  0mm
13:24 59.5 °F /  15.3 °C 55.6 °F /  13.1 °C 29.74in /  1007hPa WSW 6.0mph /  9.7km/h 14.0mph /  22.5km/h 87% 0.00in /  0mm
13:29 58.4 °F /  14.7 °C 54.5 °F /  12.5 °C 29.74in /  1007hPa SW 6.0mph /  9.7km/h 14.0mph /  22.5km/h 87% 0.00in /  0mm
13:34 57.3 °F /  14.1 °C 53.8 °F /  12.1 °C 29.75in /  1007.3hPa SW 7.0mph /  11.3km/h 13.0mph /  20.9km/h 88% 0.00in /  0mm
13:40 56.5 °F /  13.6 °C 53.3 °F /  11.8 °C 29.75in /  1007.3hPa WSW 7.0mph /  11.3km/h 14.0mph /  22.5km/h 89% 0.00in /  0mm
13:44 56.3 °F /  13.5 °C 53.4 °F /  11.9 °C 29.75in /  1007.3hPa West 13.0mph /  20.9km/h 13.0mph /  20.9km/h 90% 0.00in /  0mm
13:49 56.2 °F /  13.4 °C 53.3 °F /  11.8 °C 29.75in /  1007.3hPa WSW 6.0mph /  9.7km/h 15.0mph /  24.1km/h 90% 0.00in /  0mm
13:54 56.6 °F /  13.7 °C 53.7 °F /  12.1 °C 29.75in /  1007.3hPa SW 7.0mph /  11.3km/h 15.0mph /  24.1km/h 90% 0.00in /  0mm
14:00 57.0 °F /  13.9 °C 53.5 °F /  11.9 °C 29.75in /  1007.3hPa WSW 8.0mph /  12.9km/h 15.0mph /  24.1km/h 88% 0.00in /  0mm
14:04 56.9 °F /  13.8 °C 53.4 °F /  11.9 °C 29.75in /  1007.3hPa WNW 9.0mph /  14.5km/h 12.0mph /  19.3km/h 88% 0.00in /  0mm
14:09 57.0 °F /  13.9 °C 53.5 °F /  11.9 °C 29.75in /  1007.3hPa WSW 9.0mph /  14.5km/h 12.0mph /  19.3km/h 88% 0.00in /  0mm
14:14 58.4 °F /  14.7 °C 54.9 °F /  12.7 °C 29.76in /  1007.7hPa SW 11.0mph /  17.7km/h 11.0mph /  17.7km/h 88% 0.00in /  0mm
14:19 58.7 °F /  14.8 °C 54.8 °F /  12.7 °C 29.76in /  1007.7hPa WSW 7.0mph /  11.3km/h 15.0mph /  24.1km/h 87% 0.00in /  0mm
14:24 59.3 °F /  15.2 °C 55.1 °F /  12.8 °C 29.76in /  1007.7hPa SSW 8.0mph /  12.9km/h 18.0mph /  29km/h 86% 0.00in /  0mm
14:29 58.5 °F /  14.7 °C 54.0 °F /  12.2 °C 29.76in /  1007.7hPa WSW 9.0mph /  14.5km/h 17.0mph /  27.4km/h 85% 0.00in /  0mm
14:34 57.9 °F /  14.4 °C 53.4 °F /  11.9 °C 29.76in /  1007.7hPa WSW 7.0mph /  11.3km/h 15.0mph /  24.1km/h 85% 0.00in /  0mm
14:39 58.0 °F /  14.4 °C 53.8 °F /  12.1 °C 29.76in /  1007.7hPa SW 7.0mph /  11.3km/h 14.0mph /  22.5km/h 86% 0.00in /  0mm
14:44 57.7 °F /  14.3 °C 53.2 °F /  11.8 °C 29.76in /  1007.7hPa WSW 9.0mph /  14.5km/h 14.0mph /  22.5km/h 85% 0.00in /  0mm
14:49 57.3 °F /  14.1 °C 53.5 °F /  11.9 °C 29.77in /  1008hPa WSW 7.0mph /  11.3km/h 14.0mph /  22.5km/h 87% 0.00in /  0mm
14:55 57.3 °F /  14.1 °C 54.1 °F /  12.3 °C 29.77in /  1008hPa SW 9.0mph /  14.5km/h 12.0mph /  19.3km/h 89% 0.00in /  0mm
14:59 57.1 °F /  13.9 °C 53.6 °F /  12 °C 29.77in /  1008hPa WSW 6.0mph /  9.7km/h 14.0mph /  22.5km/h 88% 0.00in /  0mm
15:05 56.4 °F /  13.6 °C 52.9 °F /  11.6 °C 29.77in /  1008hPa WSW 7.0mph /  11.3km/h 16.0mph /  25.7km/h 88% 0.00in /  0mm
15:09 56.0 °F /  13.3 °C 52.5 °F /  11.4 °C 29.77in /  1008hPa SW 11.0mph /  17.7km/h 14.0mph /  22.5km/h 88% 0.00in /  0mm
15:14 56.0 °F /  13.3 °C 52.8 °F /  11.6 °C 29.77in /  1008hPa SW 7.0mph /  11.3km/h 14.0mph /  22.5km/h 89% 0.00in /  0mm
15:19 56.0 °F /  13.3 °C 52.8 °F /  11.6 °C 29.78in /  1008.4hPa SW 6.0mph /  9.7km/h 14.0mph /  22.5km/h 89% 0.00in /  0mm
15:24 55.9 °F /  13.3 °C 53.0 °F /  11.7 °C 29.78in /  1008.4hPa SW 5.0mph /  8km/h 13.0mph /  20.9km/h 90% 0.00in /  0mm
15:29 55.7 °F /  13.2 °C 52.8 °F /  11.6 °C 29.78in /  1008.4hPa West 3.0mph /  4.8km/h 13.0mph /  20.9km/h 90% 0.00in /  0mm
15:35 55.4 °F /  13 °C 52.5 °F /  11.4 °C 29.78in /  1008.4hPa SW 7.0mph /  11.3km/h 19.0mph /  30.6km/h 90% 0.00in /  0mm
15:40 55.3 °F /  12.9 °C 52.7 °F /  11.5 °C 29.78in /  1008.4hPa WSW 7.0mph /  11.3km/h 13.0mph /  20.9km/h 91% 0.00in /  0mm
15:44 55.4 °F /  13 °C 52.8 °F /  11.6 °C 29.78in /  1008.4hPa WSW 1.0mph /  1.6km/h 14.0mph /  22.5km/h 91% 0.00in /  0mm
15:49 55.3 °F /  12.9 °C 53.0 °F /  11.7 °C 29.78in /  1008.4hPa WSW 6.0mph /  9.7km/h 14.0mph /  22.5km/h 92% 0.00in /  0mm
15:54 55.2 °F /  12.9 °C 52.9 °F /  11.6 °C 29.78in /  1008.4hPa WSW 5.0mph /  8km/h 11.0mph /  17.7km/h 92% 0.00in /  0mm
15:59 55.4 °F /  13 °C 53.1 °F /  11.7 °C 29.78in /  1008.4hPa SW 5.0mph /  8km/h 9.0mph /  14.5km/h 92% 0.00in /  0mm
16:04 55.4 °F /  13 °C 53.1 °F /  11.7 °C 29.78in /  1008.4hPa SW 5.0mph /  8km/h 8.0mph /  12.9km/h 92% 0.00in /  0mm
16:09 55.3 °F /  12.9 °C 53.0 °F /  11.7 °C 29.78in /  1008.4hPa WSW 4.0mph /  6.4km/h 16.0mph /  25.7km/h 92% 0.00in /  0mm
16:14 55.5 °F /  13.1 °C 53.2 °F /  11.8 °C 29.78in /  1008.4hPa West 3.0mph /  4.8km/h 12.0mph /  19.3km/h 92% 0.00in /  0mm
16:19 55.5 °F /  13.1 °C 53.2 °F /  11.8 °C 29.78in /  1008.4hPa SW 6.0mph /  9.7km/h 12.0mph /  19.3km/h 92% 0.00in /  0mm
16:24 55.3 °F /  12.9 °C 53.0 °F /  11.7 °C 29.78in /  1008.4hPa SW 7.0mph /  11.3km/h 16.0mph /  25.7km/h 92% 0.00in /  0mm
16:29 55.5 °F /  13.1 °C 53.2 °F /  11.8 °C 29.78in /  1008.4hPa SSW 5.0mph /  8km/h 12.0mph /  19.3km/h 92% 0.00in /  0mm
16:34 55.3 °F /  12.9 °C 53.0 °F /  11.7 °C 29.79in /  1008.7hPa West 5.0mph /  8km/h 13.0mph /  20.9km/h 92% 0.00in /  0mm
16:39 55.4 °F /  13 °C 53.1 °F /  11.7 °C 29.78in /  1008.4hPa WSW 5.0mph /  8km/h 12.0mph /  19.3km/h 92% 0.00in /  0mm
16:44 55.8 °F /  13.2 °C 53.5 °F /  11.9 °C 29.79in /  1008.7hPa South 4.0mph /  6.4km/h 11.0mph /  17.7km/h 92% 0.00in /  0mm
16:49 55.9 °F /  13.3 °C 53.6 °F /  12 °C 29.79in /  1008.7hPa SW 5.0mph /  8km/h 11.0mph /  17.7km/h 92% 0.00in /  0mm
16:54 56.1 °F /  13.4 °C 53.8 °F /  12.1 °C 29.79in /  1008.7hPa SW 5.0mph /  8km/h 11.0mph /  17.7km/h 92% 0.00in /  0mm
16:59 56.4 °F /  13.6 °C 53.8 °F /  12.1 °C 29.79in /  1008.7hPa SW 5.0mph /  8km/h 14.0mph /  22.5km/h 91% 0.00in /  0mm
17:04 56.4 °F /  13.6 °C 53.5 °F /  11.9 °C 29.79in /  1008.7hPa WSW 6.0mph /  9.7km/h 14.0mph /  22.5km/h 90% 0.00in /  0mm
17:10 56.5 °F /  13.6 °C 53.6 °F /  12 °C 29.79in /  1008.7hPa WSW 5.0mph /  8km/h 9.0mph /  14.5km/h 90% 0.00in /  0mm
17:15 56.5 °F /  13.6 °C 53.6 °F /  12 °C 29.80in /  1009hPa WSW 6.0mph /  9.7km/h 11.0mph /  17.7km/h 90% 0.00in /  0mm
17:19 56.3 °F /  13.5 °C 53.1 °F /  11.7 °C 29.80in /  1009hPa SW 6.0mph /  9.7km/h 15.0mph /  24.1km/h 89% 0.00in /  0mm
17:24 56.0 °F /  13.3 °C 52.8 °F /  11.6 °C 29.80in /  1009hPa SW 7.0mph /  11.3km/h 16.0mph /  25.7km/h 89% 0.00in /  0mm
17:29 55.7 °F /  13.2 °C 52.5 °F /  11.4 °C 29.80in /  1009hPa WSW 7.0mph /  11.3km/h 14.0mph /  22.5km/h 89% 0.00in /  0mm
17:34 55.6 °F /  13.1 °C 52.4 °F /  11.3 °C 29.81in /  1009.4hPa West 9.0mph /  14.5km/h 13.0mph /  20.9km/h 89% 0.00in /  0mm
17:39 55.3 °F /  12.9 °C 52.4 °F /  11.3 °C 29.81in /  1009.4hPa SW 5.0mph /  8km/h 15.0mph /  24.1km/h 90% 0.00in /  0mm
17:44 55.1 °F /  12.8 °C 52.2 °F /  11.2 °C 29.81in /  1009.4hPa SW 7.0mph /  11.3km/h 19.0mph /  30.6km/h 90% 0.00in /  0mm
17:49 55.1 °F /  12.8 °C 52.2 °F /  11.2 °C 29.81in /  1009.4hPa SW 8.0mph /  12.9km/h 19.0mph /  30.6km/h 90% 0.00in /  0mm
17:54 55.0 °F /  12.8 °C 52.1 °F /  11.2 °C 29.81in /  1009.4hPa SW 7.0mph /  11.3km/h 16.0mph /  25.7km/h 90% 0.00in /  0mm
17:59 55.0 °F /  12.8 °C 52.1 °F /  11.2 °C 29.82in /  1009.7hPa West 4.0mph /  6.4km/h 15.0mph /  24.1km/h 90% 0.00in /  0mm
18:04 54.9 °F /  12.7 °C 52.3 °F /  11.3 °C 29.82in /  1009.7hPa SSW 7.0mph /  11.3km/h 11.0mph /  17.7km/h 91% 0.00in /  0mm
18:10 54.9 °F /  12.7 °C 52.3 °F /  11.3 °C 29.82in /  1009.7hPa SW 3.0mph /  4.8km/h 12.0mph /  19.3km/h 91% 0.00in /  0mm
18:14 54.8 °F /  12.7 °C 52.2 °F /  11.2 °C 29.82in /  1009.7hPa WSW 6.0mph /  9.7km/h 12.0mph /  19.3km/h 91% 0.00in /  0mm
18:19 54.8 °F /  12.7 °C 52.5 °F /  11.4 °C 29.82in /  1009.7hPa WSW 5.0mph /  8km/h 11.0mph /  17.7km/h 92% 0.00in /  0mm
18:24 54.7 °F /  12.6 °C 52.4 °F /  11.3 °C 29.82in /  1009.7hPa SW 5.0mph /  8km/h 11.0mph /  17.7km/h 92% 0.00in /  0mm
18:29 54.8 °F /  12.7 °C 52.5 °F /  11.4 °C 29.82in /  1009.7hPa SW 5.0mph /  8km/h 10.0mph /  16.1km/h 92% 0.00in /  0mm
18:34 54.8 °F /  12.7 °C 52.5 °F /  11.4 °C 29.82in /  1009.7hPa SW 4.0mph /  6.4km/h 12.0mph /  19.3km/h 92% 0.00in /  0mm
18:39 54.9 °F /  12.7 °C 52.6 °F /  11.4 °C 29.82in /  1009.7hPa WSW 7.0mph /  11.3km/h 14.0mph /  22.5km/h 92% 0.00in /  0mm
18:44 54.8 °F /  12.7 °C 52.5 °F /  11.4 °C 29.83in /  1010hPa WSW 6.0mph /  9.7km/h 14.0mph /  22.5km/h 92% 0.00in /  0mm
18:49 54.6 °F /  12.6 °C 52.3 °F /  11.3 °C 29.83in /  1010hPa WSW 4.0mph /  6.4km/h 12.0mph /  19.3km/h 92% 0.00in /  0mm
18:54 54.6 °F /  12.6 °C 52.3 °F /  11.3 °C 29.83in /  1010hPa West 5.0mph /  8km/h 10.0mph /  16.1km/h 92% 0.00in /  0mm
18:59 54.5 °F /  12.5 °C 52.2 °F /  11.2 °C 29.84in /  1010.4hPa WSW 7.0mph /  11.3km/h 10.0mph /  16.1km/h 92% 0.01in /  0.25mm
19:04 54.4 °F /  12.4 °C 52.1 °F /  11.2 °C 29.84in /  1010.4hPa West 5.0mph /  8km/h 9.0mph /  14.5km/h 92% 0.01in /  0.25mm
19:09 54.4 °F /  12.4 °C 52.4 °F /  11.3 °C 29.84in /  1010.4hPa SW 5.0mph /  8km/h 8.0mph /  12.9km/h 93% 0.03in /  0.76mm
19:14 54.3 °F /  12.4 °C 52.3 °F /  11.3 °C 29.84in /  1010.4hPa SW 4.0mph /  6.4km/h 8.0mph /  12.9km/h 93% 0.04in /  1.02mm
19:19 54.3 °F /  12.4 °C 52.3 °F /  11.3 °C 29.84in /  1010.4hPa WSW 4.0mph /  6.4km/h 9.0mph /  14.5km/h 93% 0.05in /  1.27mm
19:24 54.3 °F /  12.4 °C 52.3 °F /  11.3 °C 29.84in /  1010.4hPa SW 4.0mph /  6.4km/h 9.0mph /  14.5km/h 93% 0.05in /  1.27mm
19:29 54.2 °F /  12.3 °C 52.2 °F /  11.2 °C 29.85in /  1010.7hPa SW 5.0mph /  8km/h 12.0mph /  19.3km/h 93% 0.05in /  1.27mm
19:34 54.1 °F /  12.3 °C 52.1 °F /  11.2 °C 29.85in /  1010.7hPa WSW 5.0mph /  8km/h 12.0mph /  19.3km/h 93% 0.06in /  1.52mm
19:39 54.1 °F /  12.3 °C 52.1 °F /  11.2 °C 29.85in /  1010.7hPa WSW 4.0mph /  6.4km/h 8.0mph /  12.9km/h 93% 0.06in /  1.52mm
19:44 54.1 °F /  12.3 °C 52.1 °F /  11.2 °C 29.85in /  1010.7hPa WSW 1.0mph /  1.6km/h 8.0mph /  12.9km/h 93% 0.06in /  1.52mm
19:49 54.1 °F /  12.3 °C 52.1 °F /  11.2 °C 29.85in /  1010.7hPa SW 5.0mph /  8km/h 7.0mph /  11.3km/h 93% 0.06in /  1.52mm
19:54 54.0 °F /  12.2 °C 52.0 °F /  11.1 °C 29.85in /  1010.7hPa SW 3.0mph /  4.8km/h 6.0mph /  9.7km/h 93% 0.06in /  1.52mm
19:59 54.0 °F /  12.2 °C 52.0 °F /  11.1 °C 29.85in /  1010.7hPa SW 5.0mph /  8km/h 8.0mph /  12.9km/h 93% 0.05in /  1.27mm
20:04 54.1 °F /  12.3 °C 52.1 °F /  11.2 °C 29.85in /  1010.7hPa SW 2.0mph /  3.2km/h 7.0mph /  11.3km/h 93% 0.05in /  1.27mm
20:09 54.1 °F /  12.3 °C 52.1 °F /  11.2 °C 29.85in /  1010.7hPa SW 5.0mph /  8km/h 5.0mph /  8km/h 93% 0.03in /  0.76mm
20:14 54.1 °F /  12.3 °C 52.1 °F /  11.2 °C 29.85in /  1010.7hPa SW 3.0mph /  4.8km/h 6.0mph /  9.7km/h 93% 0.03in /  0.76mm
20:19 54.2 °F /  12.3 °C 52.2 °F /  11.2 °C 29.85in /  1010.7hPa SW 1.0mph /  1.6km/h 5.0mph /  8km/h 93% 0.02in /  0.51mm
20:24 54.3 °F /  12.4 °C 52.3 °F /  11.3 °C 29.85in /  1010.7hPa SW 3.0mph /  4.8km/h 6.0mph /  9.7km/h 93% 0.02in /  0.51mm
20:29 54.4 °F /  12.4 °C 52.7 °F /  11.5 °C 29.85in /  1010.7hPa SW 2.0mph /  3.2km/h 5.0mph /  8km/h 94% 0.02in /  0.51mm
20:34 54.6 °F /  12.6 °C 52.9 °F /  11.6 °C 29.85in /  1010.7hPa SW 2.0mph /  3.2km/h 5.0mph /  8km/h 94% 0.01in /  0.25mm
20:39 54.7 °F /  12.6 °C 53.0 °F /  11.7 °C 29.85in /  1010.7hPa WSW 5.0mph /  8km/h 7.0mph /  11.3km/h 94% 0.01in /  0.25mm
20:44 54.8 °F /  12.7 °C 53.1 °F /  11.7 °C 29.85in /  1010.7hPa SW 5.0mph /  8km/h 8.0mph /  12.9km/h 94% 0.01in /  0.25mm
20:49 54.8 °F /  12.7 °C 53.1 °F /  11.7 °C 29.85in /  1010.7hPa West 4.0mph /  6.4km/h 7.0mph /  11.3km/h 94% 0.01in /  0.25mm
20:54 54.8 °F /  12.7 °C 53.1 °F /  11.7 °C 29.85in /  1010.7hPa WSW 4.0mph /  6.4km/h 6.0mph /  9.7km/h 94% 0.01in /  0.25mm
20:59 54.6 °F /  12.6 °C 52.9 °F /  11.6 °C 29.85in /  1010.7hPa SW 3.0mph /  4.8km/h 9.0mph /  14.5km/h 94% 0.01in /  0.25mm
21:04 54.6 °F /  12.6 °C 52.9 °F /  11.6 °C 29.85in /  1010.7hPa SW 3.0mph /  4.8km/h 5.0mph /  8km/h 94% 0.01in /  0.25mm
21:09 54.6 °F /  12.6 °C 52.9 °F /  11.6 °C 29.85in /  1010.7hPa SW 1.0mph /  1.6km/h 7.0mph /  11.3km/h 94% 0.01in /  0.25mm
21:14 54.5 °F /  12.5 °C 52.8 °F /  11.6 °C 29.85in /  1010.7hPa SSW 2.0mph /  3.2km/h 6.0mph /  9.7km/h 94% 0.00in /  0mm
21:19 54.4 °F /  12.4 °C 52.7 °F /  11.5 °C 29.85in /  1010.7hPa SW 2.0mph /  3.2km/h 6.0mph /  9.7km/h 94% 0.00in /  0mm
21:24 54.4 °F /  12.4 °C 52.7 °F /  11.5 °C 29.86in /  1011.1hPa SW 2.0mph /  3.2km/h 7.0mph /  11.3km/h 94% 0.00in /  0mm
21:29 54.4 °F /  12.4 °C 52.7 °F /  11.5 °C 29.86in /  1011.1hPa SW 3.0mph /  4.8km/h 7.0mph /  11.3km/h 94% 0.00in /  0mm
21:34 54.4 °F /  12.4 °C 52.7 °F /  11.5 °C 29.86in /  1011.1hPa SW 4.0mph /  6.4km/h 9.0mph /  14.5km/h 94% 0.00in /  0mm
21:39 54.3 °F /  12.4 °C 52.6 °F /  11.4 °C 29.86in /  1011.1hPa SW 4.0mph /  6.4km/h 9.0mph /  14.5km/h 94% 0.00in /  0mm
21:44 54.3 °F /  12.4 °C 52.6 °F /  11.4 °C 29.86in /  1011.1hPa SW 4.0mph /  6.4km/h 10.0mph /  16.1km/h 94% 0.00in /  0mm
21:49 54.1 °F /  12.3 °C 52.4 °F /  11.3 °C 29.86in /  1011.1hPa WSW 8.0mph /  12.9km/h 8.0mph /  12.9km/h 94% 0.00in /  0mm
21:54 54.1 °F /  12.3 °C 52.4 °F /  11.3 °C 29.87in /  1011.4hPa SW 3.0mph /  4.8km/h 8.0mph /  12.9km/h 94% 0.00in /  0mm
21:59 54.0 °F /  12.2 °C 52.3 °F /  11.3 °C 29.87in /  1011.4hPa SSW 4.0mph /  6.4km/h 9.0mph /  14.5km/h 94% 0.00in /  0mm
22:09 53.9 °F /  12.2 °C 52.2 °F /  11.2 °C 29.88in /  1011.7hPa SW 3.0mph /  4.8km/h 10.0mph /  16.1km/h 94% 0.00in /  0mm
22:14 53.9 °F /  12.2 °C 52.2 °F /  11.2 °C 29.88in /  1011.7hPa SW 4.0mph /  6.4km/h 10.0mph /  16.1km/h 94% 0.00in /  0mm
22:19 53.8 °F /  12.1 °C 52.1 °F /  11.2 °C 29.88in /  1011.7hPa SW 4.0mph /  6.4km/h 8.0mph /  12.9km/h 94% 0.00in /  0mm
22:24 53.9 °F /  12.2 °C 52.2 °F /  11.2 °C 29.88in /  1011.7hPa SW 4.0mph /  6.4km/h 8.0mph /  12.9km/h 94% 0.00in /  0mm
22:29 53.9 °F /  12.2 °C 52.2 °F /  11.2 °C 29.88in /  1011.7hPa SW 4.0mph /  6.4km/h 7.0mph /  11.3km/h 94% 0.00in /  0mm
22:34 54.1 °F /  12.3 °C 52.4 °F /  11.3 °C 29.88in /  1011.7hPa West 2.0mph /  3.2km/h 8.0mph /  12.9km/h 94% 0.00in /  0mm
22:39 54.1 °F /  12.3 °C 52.4 °F /  11.3 °C 29.88in /  1011.7hPa WSW 1.0mph /  1.6km/h 9.0mph /  14.5km/h 94% 0.00in /  0mm
22:44 54.1 °F /  12.3 °C 52.4 °F /  11.3 °C 29.88in /  1011.7hPa WSW 4.0mph /  6.4km/h 10.0mph /  16.1km/h 94% 0.00in /  0mm
22:49 54.0 °F /  12.2 °C 52.3 °F /  11.3 °C 29.89in /  1012.1hPa WSW 4.0mph /  6.4km/h 10.0mph /  16.1km/h 94% 0.00in /  0mm
22:54 53.9 °F /  12.2 °C 52.2 °F /  11.2 °C 29.88in /  1011.7hPa WSW 3.0mph /  4.8km/h 5.0mph /  8km/h 94% 0.00in /  0mm
22:59 53.8 °F /  12.1 °C 52.1 °F /  11.2 °C 29.89in /  1012.1hPa SSW 2.0mph /  3.2km/h 7.0mph /  11.3km/h 94% 0.00in /  0mm
23:04 53.9 °F /  12.2 °C 52.2 °F /  11.2 °C 29.89in /  1012.1hPa SW 4.0mph /  6.4km/h 7.0mph /  11.3km/h 94% 0.00in /  0mm
23:09 53.9 °F /  12.2 °C 52.2 °F /  11.2 °C 29.89in /  1012.1hPa WSW 2.0mph /  3.2km/h 4.0mph /  6.4km/h 94% 0.00in /  0mm
23:14 53.9 °F /  12.2 °C 52.2 °F /  11.2 °C 29.89in /  1012.1hPa SW 2.0mph /  3.2km/h 4.0mph /  6.4km/h 94% 0.00in /  0mm
23:19 53.9 °F /  12.2 °C 52.2 °F /  11.2 °C 29.88in /  1011.7hPa SW 2.0mph /  3.2km/h 6.0mph /  9.7km/h 94% 0.00in /  0mm
23:24 53.9 °F /  12.2 °C 52.2 °F /  11.2 °C 29.88in /  1011.7hPa SW 2.0mph /  3.2km/h 7.0mph /  11.3km/h 94% 0.00in /  0mm
23:29 53.8 °F /  12.1 °C 52.1 °F /  11.2 °C 29.88in /  1011.7hPa SW 2.0mph /  3.2km/h 7.0mph /  11.3km/h 94% 0.00in /  0mm
23:34 53.9 °F /  12.2 °C 52.2 °F /  11.2 °C 29.89in /  1012.1hPa SSW 4.0mph /  6.4km/h 6.0mph /  9.7km/h 94% 0.00in /  0mm
23:39 53.9 °F /  12.2 °C 52.2 °F /  11.2 °C 29.89in /  1012.1hPa SSW 2.0mph /  3.2km/h 6.0mph /  9.7km/h 94% 0.00in /  0mm
23:44 53.9 °F /  12.2 °C 52.2 °F /  11.2 °C 29.89in /  1012.1hPa SW 3.0mph /  4.8km/h 3.0mph /  4.8km/h 94% 0.00in /  0mm
23:49 53.9 °F /  12.2 °C 52.2 °F /  11.2 °C 29.89in /  1012.1hPa WSW 1.0mph /  1.6km/h 5.0mph /  8km/h 94% 0.01in /  0.25mm
23:54 53.9 °F /  12.2 °C 52.2 °F /  11.2 °C 29.88in /  1011.7hPa Calm   6.0mph /  9.7km/h 94% 0.01in /  0.25mm
23:59 53.9 °F /  12.2 °C 52.2 °F /  11.2 °C 29.88in /  1011.7hPa SW 5.0mph /  8km/h 7.0mph /  11.3km/h 94% 0.01in /  0.25mm
Buffalo, New York, USA
Compliments of Weather Underground - 2.5 mb